createdAt,value
2022-09-14T00:04:38.983Z,19.52
2022-09-14T00:09:40.454Z,19.63
2022-09-14T00:14:42.082Z,19.79
2022-09-14T00:19:43.647Z,19.89
2022-09-14T00:24:45.118Z,19.73
2022-09-14T00:29:48.574Z,19.80
2022-09-14T00:34:50.134Z,19.64
2022-09-14T00:39:51.738Z,19.67
2022-09-14T00:44:54.852Z,19.50
2022-09-14T00:49:56.324Z,19.76
2022-09-14T00:54:59.120Z,19.62
2022-09-14T01:00:00.618Z,19.61
2022-09-14T01:05:02.379Z,19.51
2022-09-14T01:10:16.876Z,19.33
2022-09-14T01:15:44.521Z,19.60
2022-09-14T01:20:51.839Z,19.35
2022-09-14T01:26:27.848Z,19.34
2022-09-14T01:31:34.600Z,19.24
2022-09-14T01:36:36.898Z,19.71
2022-09-14T01:41:38.253Z,19.36
2022-09-14T01:46:41.823Z,19.53
2022-09-14T01:51:50.263Z,19.27
2022-09-14T01:56:53.845Z,19.22
2022-09-14T02:02:03.019Z,19.17
2022-09-14T02:07:04.831Z,19.26
2022-09-14T02:12:06.378Z,19.19
2022-09-14T02:17:08.504Z,19.11
2022-09-14T02:22:10.005Z,18.93
2022-09-14T02:27:11.531Z,18.76
2022-09-14T02:32:27.282Z,18.97
2022-09-14T02:37:50.198Z,19.22
2022-09-14T02:42:58.722Z,19.05
2022-09-14T02:48:04.838Z,19.04
2022-09-14T02:53:49.565Z,19.17
2022-09-14T02:58:51.076Z,18.93
2022-09-14T03:03:52.548Z,19.06
2022-09-14T03:08:54.015Z,19.22
2022-09-14T03:13:55.492Z,19.36
2022-09-14T03:18:56.955Z,19.32
2022-09-14T03:23:58.521Z,19.23
2022-09-14T03:29:00.007Z,19.13
2022-09-14T03:34:02.048Z,18.99
2022-09-14T03:39:03.572Z,19.28
2022-09-14T03:44:05.053Z,19.09
2022-09-14T03:49:06.536Z,19.25
2022-09-14T03:54:08.273Z,19.04
2022-09-14T03:59:10.144Z,19.50
2022-09-14T04:04:11.684Z,19.34
2022-09-14T04:09:13.175Z,19.69
2022-09-14T04:14:14.642Z,19.76
2022-09-14T04:19:17.295Z,19.58
2022-09-14T04:24:19.091Z,19.57
2022-09-14T04:29:20.750Z,19.56
2022-09-14T04:34:22.633Z,19.09
2022-09-14T04:39:24.115Z,19.55
2022-09-14T04:44:25.626Z,19.47
2022-09-14T04:49:27.095Z,19.66
2022-09-14T04:54:28.620Z,19.53
2022-09-14T04:59:30.083Z,19.31
2022-09-14T05:04:31.575Z,19.46
2022-09-14T05:09:33.037Z,19.26
2022-09-14T05:14:34.531Z,19.35
2022-09-14T05:19:36.006Z,19.34
2022-09-14T05:24:37.510Z,19.39
2022-09-14T05:29:40.201Z,19.53
2022-09-14T05:34:41.666Z,19.60
2022-09-14T05:39:43.175Z,19.51
2022-09-14T05:44:44.669Z,19.24
2022-09-14T05:49:46.134Z,19.49
2022-09-14T05:54:47.604Z,20.01
2022-09-14T05:59:49.071Z,19.79
2022-09-14T06:04:50.562Z,19.81
2022-09-14T06:09:52.043Z,19.85
2022-09-14T06:14:53.521Z,19.96
2022-09-14T06:19:54.991Z,19.74
2022-09-14T06:24:56.472Z,19.65
2022-09-14T06:29:57.975Z,19.88
2022-09-14T06:34:59.784Z,19.66
2022-09-14T06:40:01.343Z,19.68
2022-09-14T06:45:02.864Z,20.26
2022-09-14T06:50:04.768Z,20.40
2022-09-14T06:55:06.487Z,20.15
2022-09-14T07:00:08.890Z,20.24
2022-09-14T07:05:10.426Z,20.45
2022-09-14T07:10:11.911Z,20.29
2022-09-14T07:15:13.423Z,20.18
2022-09-14T07:20:15.625Z,20.36
2022-09-14T07:25:17.109Z,20.25
2022-09-14T07:30:18.580Z,20.23
2022-09-14T07:35:20.087Z,20.33
2022-09-14T07:40:23.156Z,20.29
2022-09-14T07:45:24.942Z,20.31
2022-09-14T07:50:26.462Z,20.38
2022-09-14T07:55:27.936Z,21.00
2022-09-14T08:00:29.416Z,21.01
2022-09-14T08:05:30.886Z,20.73
2022-09-14T08:10:34.799Z,21.00
2022-09-14T08:15:36.852Z,20.88
2022-09-14T08:20:38.472Z,21.24
2022-09-14T08:25:39.950Z,21.40
2022-09-14T08:30:41.549Z,21.43
2022-09-14T08:35:57.490Z,21.56
2022-09-14T08:41:05.895Z,21.49
2022-09-14T08:46:10.168Z,21.55
2022-09-14T08:51:11.758Z,21.42
2022-09-14T08:56:16.970Z,21.34
2022-09-14T09:01:37.339Z,21.42
2022-09-14T09:07:17.752Z,21.43
2022-09-14T09:12:34.899Z,21.41
2022-09-14T09:17:43.247Z,21.14
2022-09-14T09:23:04.901Z,21.15
2022-09-14T09:28:10.182Z,21.32
2022-09-14T09:33:23.231Z,21.23
2022-09-14T09:38:28.583Z,21.45
2022-09-14T09:43:48.275Z,21.14
2022-09-14T09:48:50.208Z,21.34
2022-09-14T09:53:53.203Z,21.03
2022-09-14T09:58:54.714Z,21.45
2022-09-14T10:04:16.234Z,21.85
2022-09-14T10:09:20.989Z,22.24
2022-09-14T10:14:43.688Z,22.54
2022-09-14T10:19:52.347Z,22.46
2022-09-14T10:24:55.381Z,22.92
2022-09-14T10:29:56.859Z,23.12
2022-09-14T10:34:58.816Z,22.30
2022-09-14T10:40:13.809Z,21.96
2022-09-14T10:51:33.448Z,21.53
2022-09-14T10:56:40.662Z,21.45
2022-09-14T11:01:57.667Z,21.42
2022-09-14T11:07:12.370Z,21.30
2022-09-14T11:12:31.655Z,21.51
2022-09-14T11:17:51.752Z,21.95
2022-09-14T11:23:21.689Z,22.54
2022-09-14T11:28:29.430Z,22.98
2022-09-14T11:33:43.620Z,22.65
2022-09-14T11:38:53.063Z,23.15
2022-09-14T11:44:05.090Z,23.18
2022-09-14T11:49:19.932Z,23.40
2022-09-14T11:54:21.769Z,23.39
2022-09-14T11:59:36.761Z,23.47
2022-09-14T12:04:38.256Z,23.14
2022-09-14T12:09:40.044Z,23.91
2022-09-14T12:14:44.468Z,23.91
2022-09-14T12:19:46.549Z,23.87
2022-09-14T12:25:01.918Z,24.34
2022-09-14T12:30:41.545Z,24.45
2022-09-14T12:35:45.125Z,24.46
2022-09-14T12:40:46.772Z,24.28
2022-09-14T12:45:52.342Z,24.28
2022-09-14T12:50:53.894Z,24.18
2022-09-14T12:56:05.335Z,23.75
2022-09-14T13:01:36.264Z,23.47
2022-09-14T13:06:45.378Z,23.14
2022-09-14T13:11:47.980Z,23.21
2022-09-14T13:16:51.445Z,23.17
2022-09-14T13:21:55.056Z,23.49
2022-09-14T13:26:58.086Z,23.69
2022-09-14T13:32:03.773Z,23.83
2022-09-14T13:37:06.197Z,23.49
2022-09-14T13:42:07.791Z,23.49
2022-09-14T13:47:10.613Z,23.26
2022-09-14T13:52:18.844Z,23.16
2022-09-14T13:57:22.874Z,23.13
2022-09-14T14:02:24.386Z,23.41
2022-09-14T14:07:34.020Z,23.13
2022-09-14T14:12:39.544Z,23.30
2022-09-14T14:17:41.232Z,23.58
2022-09-14T14:23:04.641Z,23.23
2022-09-14T14:28:15.066Z,23.28
2022-09-14T14:33:19.128Z,23.19
2022-09-14T14:38:23.269Z,22.92
2022-09-14T14:43:26.281Z,23.23
2022-09-14T14:48:28.094Z,23.26
2022-09-14T14:53:29.612Z,23.58
2022-09-14T14:58:36.125Z,23.35
2022-09-14T15:03:38.007Z,23.53
2022-09-14T15:08:39.555Z,23.31
2022-09-14T15:13:41.037Z,23.17
2022-09-14T15:18:42.593Z,23.21
2022-09-14T15:23:44.102Z,22.98
2022-09-14T15:28:45.871Z,22.89
2022-09-14T15:33:47.443Z,23.01
2022-09-14T15:38:48.993Z,22.98
2022-09-14T15:43:50.541Z,22.90
2022-09-14T15:48:52.101Z,22.34
2022-09-14T15:53:53.578Z,22.82
2022-09-14T15:58:58.096Z,22.38
2022-09-14T16:04:01.089Z,22.66
2022-09-14T16:09:04.072Z,22.65
2022-09-14T16:14:06.241Z,22.18
2022-09-14T16:19:09.670Z,22.66
2022-09-14T16:24:14.162Z,22.73
2022-09-14T16:29:17.216Z,22.20
2022-09-14T16:34:26.536Z,22.17
2022-09-14T16:39:29.630Z,22.19
2022-09-14T16:44:31.172Z,22.19
2022-09-14T16:49:32.755Z,21.93
2022-09-14T16:54:34.296Z,21.85
2022-09-14T16:59:35.785Z,21.79
2022-09-14T17:04:37.263Z,21.58
2022-09-14T17:09:41.031Z,21.53
2022-09-14T17:14:42.516Z,21.55
2022-09-14T17:19:44.075Z,21.39
2022-09-14T17:24:45.571Z,21.38
2022-09-14T17:29:47.082Z,21.52
2022-09-14T17:34:48.603Z,21.46
2022-09-14T17:39:50.623Z,21.60
2022-09-14T17:44:52.165Z,21.40
2022-09-14T17:49:53.656Z,21.30
2022-09-14T17:54:55.131Z,20.96
2022-09-14T17:59:56.642Z,20.72
2022-09-14T18:04:58.175Z,20.88
2022-09-14T18:09:59.663Z,20.98
2022-09-14T18:15:01.710Z,20.72
2022-09-14T18:20:03.441Z,20.63
2022-09-14T18:25:05.839Z,20.84
2022-09-14T18:30:07.944Z,21.07
2022-09-14T18:35:09.811Z,20.89
2022-09-14T18:40:11.409Z,20.90
2022-09-14T18:45:12.949Z,21.05
2022-09-14T18:50:14.910Z,20.89
2022-09-14T18:55:16.542Z,20.57
2022-09-14T19:00:18.805Z,20.82
2022-09-14T19:05:21.291Z,20.81
2022-09-14T19:10:23.154Z,21.02
2022-09-14T19:15:24.644Z,21.31
2022-09-14T19:20:38.173Z,21.40
2022-09-14T19:25:48.128Z,21.31
2022-09-14T19:30:50.015Z,21.28
2022-09-14T19:35:51.586Z,20.95
2022-09-14T19:40:53.123Z,21.29
2022-09-14T19:45:54.642Z,21.32
2022-09-14T19:51:03.940Z,21.40
2022-09-14T19:56:07.772Z,21.16
2022-09-14T20:01:09.321Z,21.19
2022-09-14T20:06:23.272Z,21.29
2022-09-14T20:11:25.843Z,21.49
2022-09-14T20:16:29.925Z,21.11
2022-09-14T20:21:31.487Z,20.73
2022-09-14T20:26:33.016Z,20.13
2022-09-14T20:31:34.690Z,20.21
2022-09-14T20:36:36.210Z,20.11
2022-09-14T20:41:37.741Z,19.84
2022-09-14T20:46:43.835Z,19.96
2022-09-14T20:51:45.464Z,20.15
2022-09-14T20:56:46.991Z,20.07
2022-09-14T21:01:49.645Z,19.91
2022-09-14T21:06:53.322Z,20.12
2022-09-14T21:11:54.810Z,20.13
2022-09-14T21:16:57.403Z,20.09
2022-09-14T21:21:58.914Z,20.10
2022-09-14T21:27:00.418Z,19.96
2022-09-14T21:32:06.821Z,19.85
2022-09-14T21:37:10.274Z,19.88
2022-09-14T21:42:11.760Z,19.73
2022-09-14T21:47:13.241Z,19.50
2022-09-14T21:52:14.725Z,19.34
2022-09-14T21:57:16.209Z,19.17
2022-09-14T22:02:17.699Z,19.04
2022-09-14T22:07:19.224Z,19.01
2022-09-14T22:12:20.729Z,19.26
2022-09-14T22:17:22.198Z,19.13
2022-09-14T22:22:23.732Z,19.08
2022-09-14T22:27:25.225Z,19.22
2022-09-14T22:32:26.724Z,18.81
2022-09-14T22:37:28.217Z,19.03
2022-09-14T22:42:31.449Z,19.07
2022-09-14T22:47:32.931Z,18.58
2022-09-14T22:52:34.415Z,18.58
2022-09-14T22:57:35.885Z,18.40
2022-09-14T23:02:37.416Z,18.44
2022-09-14T23:07:39.008Z,18.65
2022-09-14T23:12:40.557Z,18.49
2022-09-14T23:17:42.058Z,18.38
2022-09-14T23:22:43.560Z,18.34
2022-09-14T23:27:45.078Z,18.39
2022-09-14T23:32:46.670Z,18.40
2022-09-14T23:37:48.201Z,18.14
2022-09-14T23:42:49.695Z,18.22
2022-09-14T23:47:51.181Z,18.36
2022-09-14T23:52:57.270Z,18.40
2022-09-14T23:57:58.750Z,18.19
